sensor_id;sensor_type;location;lat;lon;timestamp;temperature;humidity
7476;DHT22;3779;49.216;8.650;2023-04-24T00:01:25;21.00;51.20
7476;DHT22;3779;49.216;8.650;2023-04-24T00:04:10;20.90;51.20
7476;DHT22;3779;49.216;8.650;2023-04-24T00:06:59;20.90;52.00
7476;DHT22;3779;49.216;8.650;2023-04-24T00:09:46;21.00;51.10
7476;DHT22;3779;49.216;8.650;2023-04-24T00:12:32;21.00;51.00
7476;DHT22;3779;49.216;8.650;2023-04-24T00:15:18;21.00;51.10
7476;DHT22;3779;49.216;8.650;2023-04-24T00:18:04;21.00;50.90
7476;DHT22;3779;49.216;8.650;2023-04-24T00:20:50;20.90;51.10
7476;DHT22;3779;49.216;8.650;2023-04-24T00:23:36;20.90;51.10
7476;DHT22;3779;49.216;8.650;2023-04-24T00:26:22;20.90;50.90
7476;DHT22;3779;49.216;8.650;2023-04-24T00:29:08;20.90;51.20
7476;DHT22;3779;49.216;8.650;2023-04-24T00:31:54;20.90;50.90
7476;DHT22;3779;49.216;8.650;2023-04-24T00:34:40;21.00;51.10
7476;DHT22;3779;49.216;8.650;2023-04-24T00:37:27;20.90;51.10
7476;DHT22;3779;49.216;8.650;2023-04-24T00:40:14;21.00;51.80
7476;DHT22;3779;49.216;8.650;2023-04-24T00:43:02;21.00;51.10
7476;DHT22;3779;49.216;8.650;2023-04-24T00:45:48;21.00;50.80
7476;DHT22;3779;49.216;8.650;2023-04-24T00:48:34;21.20;51.00
7476;DHT22;3779;49.216;8.650;2023-04-24T00:51:21;21.00;51.00
7476;DHT22;3779;49.216;8.650;2023-04-24T00:54:10;21.10;51.30
7476;DHT22;3779;49.216;8.650;2023-04-24T00:56:55;20.90;51.00
7476;DHT22;3779;49.216;8.650;2023-04-24T00:59:42;21.10;51.20
7476;DHT22;3779;49.216;8.650;2023-04-24T01:02:29;20.90;51.00
7476;DHT22;3779;49.216;8.650;2023-04-24T01:05:18;21.00;50.90
7476;DHT22;3779;49.216;8.650;2023-04-24T01:08:04;21.00;51.00
7476;DHT22;3779;49.216;8.650;2023-04-24T01:10:53;20.90;50.90
7476;DHT22;3779;49.216;8.650;2023-04-24T01:13:39;20.90;50.70
7476;DHT22;3779;49.216;8.650;2023-04-24T01:16:25;21.00;50.80
7476;DHT22;3779;49.216;8.650;2023-04-24T01:19:15;21.10;51.10
7476;DHT22;3779;49.216;8.650;2023-04-24T01:22:02;21.10;51.20
7476;DHT22;3779;49.216;8.650;2023-04-24T01:24:48;20.90;51.00
7476;DHT22;3779;49.216;8.650;2023-04-24T01:27:34;20.90;50.80
7476;DHT22;3779;49.216;8.650;2023-04-24T01:30:20;20.90;50.80
7476;DHT22;3779;49.216;8.650;2023-04-24T01:33:06;20.90;50.80
7476;DHT22;3779;49.216;8.650;2023-04-24T01:35:52;21.10;51.10
7476;DHT22;3779;49.216;8.650;2023-04-24T01:38:38;21.00;50.80
7476;DHT22;3779;49.216;8.650;2023-04-24T01:41:25;20.90;50.80
7476;DHT22;3779;49.216;8.650;2023-04-24T01:44:11;20.90;50.80
7476;DHT22;3779;49.216;8.650;2023-04-24T01:46:57;20.90;50.80
7476;DHT22;3779;49.216;8.650;2023-04-24T01:49:43;20.90;50.80
7476;DHT22;3779;49.216;8.650;2023-04-24T01:52:32;20.90;51.00
7476;DHT22;3779;49.216;8.650;2023-04-24T01:55:18;21.00;50.90
7476;DHT22;3779;49.216;8.650;2023-04-24T01:58:05;20.90;50.80
7476;DHT22;3779;49.216;8.650;2023-04-24T02:00:51;20.90;50.80
7476;DHT22;3779;49.216;8.650;2023-04-24T02:03:36;20.90;50.70
7476;DHT22;3779;49.216;8.650;2023-04-24T02:06:22;20.90;50.70
7476;DHT22;3779;49.216;8.650;2023-04-24T02:09:09;21.00;50.90
7476;DHT22;3779;49.216;8.650;2023-04-24T02:11:56;21.10;51.00
7476;DHT22;3779;49.216;8.650;2023-04-24T02:14:43;20.90;50.80
7476;DHT22;3779;49.216;8.650;2023-04-24T02:17:29;20.90;50.60
7476;DHT22;3779;49.216;8.650;2023-04-24T02:20:16;21.00;50.60
7476;DHT22;3779;49.216;8.650;2023-04-24T02:23:03;21.00;50.60
7476;DHT22;3779;49.216;8.650;2023-04-24T02:25:49;20.90;50.20
7476;DHT22;3779;49.216;8.650;2023-04-24T02:28:36;21.00;50.50
7476;DHT22;3779;49.216;8.650;2023-04-24T02:31:22;21.00;50.10
7476;DHT22;3779;49.216;8.650;2023-04-24T02:34:08;21.10;50.50
7476;DHT22;3779;49.216;8.650;2023-04-24T02:36:54;20.70;50.30
7476;DHT22;3779;49.216;8.650;2023-04-24T02:39:40;20.70;50.90
7476;DHT22;3779;49.216;8.650;2023-04-24T02:42:25;20.70;51.00
7476;DHT22;3779;49.216;8.650;2023-04-24T02:45:12;20.70;51.50
7476;DHT22;3779;49.216;8.650;2023-04-24T02:47:58;20.80;50.90
7476;DHT22;3779;49.216;8.650;2023-04-24T02:50:44;21.00;50.80
7476;DHT22;3779;49.216;8.650;2023-04-24T02:53:30;20.90;50.50
7476;DHT22;3779;49.216;8.650;2023-04-24T02:56:16;20.90;50.10
7476;DHT22;3779;49.216;8.650;2023-04-24T02:59:02;20.90;50.30
7476;DHT22;3779;49.216;8.650;2023-04-24T03:01:48;21.10;50.70
7476;DHT22;3779;49.216;8.650;2023-04-24T03:04:34;20.90;50.40
7476;DHT22;3779;49.216;8.650;2023-04-24T03:07:20;20.90;50.40
7476;DHT22;3779;49.216;8.650;2023-04-24T03:10:07;20.90;50.40
7476;DHT22;3779;49.216;8.650;2023-04-24T03:12:52;20.90;50.50
7476;DHT22;3779;49.216;8.650;2023-04-24T03:15:40;21.10;50.70
7476;DHT22;3779;49.216;8.650;2023-04-24T03:18:26;20.90;50.40
7476;DHT22;3779;49.216;8.650;2023-04-24T03:21:12;20.90;50.20
7476;DHT22;3779;49.216;8.650;2023-04-24T03:23:58;20.90;50.40
7476;DHT22;3779;49.216;8.650;2023-04-24T03:26:43;20.90;50.40
7476;DHT22;3779;49.216;8.650;2023-04-24T03:29:56;20.80;50.60
7476;DHT22;3779;49.216;8.650;2023-04-24T03:32:46;20.90;50.70
7476;DHT22;3779;49.216;8.650;2023-04-24T03:35:36;20.80;50.70
7476;DHT22;3779;49.216;8.650;2023-04-24T03:38:26;20.90;51.00
7476;DHT22;3779;49.216;8.650;2023-04-24T03:41:36;20.80;50.90
7476;DHT22;3779;49.216;8.650;2023-04-24T03:44:43;20.80;50.80
7476;DHT22;3779;49.216;8.650;2023-04-24T03:47:29;21.00;50.70
7476;DHT22;3779;49.216;8.650;2023-04-24T03:50:17;21.00;50.50
7476;DHT22;3779;49.216;8.650;2023-04-24T03:53:03;20.90;50.70
7476;DHT22;3779;49.216;8.650;2023-04-24T03:56:00;20.90;50.60
7476;DHT22;3779;49.216;8.650;2023-04-24T03:58:46;20.90;50.60
7476;DHT22;3779;49.216;8.650;2023-04-24T04:01:32;21.00;50.80
7476;DHT22;3779;49.216;8.650;2023-04-24T04:04:26;20.80;50.80
7476;DHT22;3779;49.216;8.650;2023-04-24T04:07:12;20.80;50.70
7476;DHT22;3779;49.216;8.650;2023-04-24T04:09:59;20.70;51.00
7476;DHT22;3779;49.216;8.650;2023-04-24T04:12:45;20.70;51.00
7476;DHT22;3779;49.216;8.650;2023-04-24T04:15:30;20.70;51.30
7476;DHT22;3779;49.216;8.650;2023-04-24T04:18:16;20.90;51.10
7476;DHT22;3779;49.216;8.650;2023-04-24T04:21:03;20.70;50.90
7476;DHT22;3779;49.216;8.650;2023-04-24T04:23:48;20.80;50.80
7476;DHT22;3779;49.216;8.650;2023-04-24T04:26:39;20.80;51.40
7476;DHT22;3779;49.216;8.650;2023-04-24T04:29:28;20.70;50.70
7476;DHT22;3779;49.216;8.650;2023-04-24T04:32:16;20.70;51.00
7476;DHT22;3779;49.216;8.650;2023-04-24T04:35:02;20.70;51.10
7476;DHT22;3779;49.216;8.650;2023-04-24T04:38:16;20.70;50.90
7476;DHT22;3779;49.216;8.650;2023-04-24T04:41:11;20.70;50.70
7476;DHT22;3779;49.216;8.650;2023-04-24T04:43:57;20.80;50.50
7476;DHT22;3779;49.216;8.650;2023-04-24T04:46:46;20.80;50.50
7476;DHT22;3779;49.216;8.650;2023-04-24T04:49:59;20.80;50.60
7476;DHT22;3779;49.216;8.650;2023-04-24T04:52:47;20.80;50.00
7476;DHT22;3779;49.216;8.650;2023-04-24T04:55:41;20.80;50.30
7476;DHT22;3779;49.216;8.650;2023-04-24T04:58:33;20.90;50.40
7476;DHT22;3779;49.216;8.650;2023-04-24T05:01:21;20.80;50.10
7476;DHT22;3779;49.216;8.650;2023-04-24T05:04:09;20.80;50.50
7476;DHT22;3779;49.216;8.650;2023-04-24T05:06:56;20.80;50.40
7476;DHT22;3779;49.216;8.650;2023-04-24T05:09:44;20.70;50.50
7476;DHT22;3779;49.216;8.650;2023-04-24T05:12:30;20.70;49.90
7476;DHT22;3779;49.216;8.650;2023-04-24T05:15:17;20.70;50.60
7476;DHT22;3779;49.216;8.650;2023-04-24T05:18:04;20.70;50.20
7476;DHT22;3779;49.216;8.650;2023-04-24T05:20:50;20.60;50.60
7476;DHT22;3779;49.216;8.650;2023-04-24T05:23:36;20.60;50.30
7476;DHT22;3779;49.216;8.650;2023-04-24T05:26:22;20.60;50.90
7476;DHT22;3779;49.216;8.650;2023-04-24T05:29:08;20.60;50.90
7476;DHT22;3779;49.216;8.650;2023-04-24T05:31:54;20.60;50.70
7476;DHT22;3779;49.216;8.650;2023-04-24T05:34:41;20.80;50.40
7476;DHT22;3779;49.216;8.650;2023-04-24T05:37:27;20.60;50.60
7476;DHT22;3779;49.216;8.650;2023-04-24T05:40:13;20.60;50.70
7476;DHT22;3779;49.216;8.650;2023-04-24T05:42:59;20.70;50.60
7476;DHT22;3779;49.216;8.650;2023-04-24T05:45:45;20.60;50.10
7476;DHT22;3779;49.216;8.650;2023-04-24T05:48:31;20.60;50.70
7476;DHT22;3779;49.216;8.650;2023-04-24T05:51:19;20.90;51.00
7476;DHT22;3779;49.216;8.650;2023-04-24T05:54:06;20.70;50.60
7476;DHT22;3779;49.216;8.650;2023-04-24T05:56:51;20.70;50.20
7476;DHT22;3779;49.216;8.650;2023-04-24T05:59:50;20.80;49.90
7476;DHT22;3779;49.216;8.650;2023-04-24T06:02:38;20.70;50.30
7476;DHT22;3779;49.216;8.650;2023-04-24T06:05:26;20.80;50.20
7476;DHT22;3779;49.216;8.650;2023-04-24T06:08:12;20.80;50.30
7476;DHT22;3779;49.216;8.650;2023-04-24T06:11:02;20.70;50.10
7476;DHT22;3779;49.216;8.650;2023-04-24T06:13:48;20.80;50.70
7476;DHT22;3779;49.216;8.650;2023-04-24T06:17:00;20.80;50.30
7476;DHT22;3779;49.216;8.650;2023-04-24T06:19:53;20.70;50.30
7476;DHT22;3779;49.216;8.650;2023-04-24T06:22:41;20.80;50.30
7476;DHT22;3779;49.216;8.650;2023-04-24T06:25:29;20.80;50.00
7476;DHT22;3779;49.216;8.650;2023-04-24T06:28:14;20.80;50.10
7476;DHT22;3779;49.216;8.650;2023-04-24T06:31:00;20.80;50.10
7476;DHT22;3779;49.216;8.650;2023-04-24T06:33:47;20.80;49.70
7476;DHT22;3779;49.216;8.650;2023-04-24T06:36:39;20.80;50.00
7476;DHT22;3779;49.216;8.650;2023-04-24T06:39:25;20.90;49.90
7476;DHT22;3779;49.216;8.650;2023-04-24T06:42:11;20.80;49.90
7476;DHT22;3779;49.216;8.650;2023-04-24T06:44:59;20.90;49.80
7476;DHT22;3779;49.216;8.650;2023-04-24T06:47:45;20.80;50.00
7476;DHT22;3779;49.216;8.650;2023-04-24T06:50:31;20.80;49.80
7476;DHT22;3779;49.216;8.650;2023-04-24T06:53:17;20.80;49.80
7476;DHT22;3779;49.216;8.650;2023-04-24T06:56:03;20.90;49.80
7476;DHT22;3779;49.216;8.650;2023-04-24T06:58:50;20.80;49.40
7476;DHT22;3779;49.216;8.650;2023-04-24T07:01:35;20.70;49.60
7476;DHT22;3779;49.216;8.650;2023-04-24T07:04:24;20.50;48.70
7476;DHT22;3779;49.216;8.650;2023-04-24T07:07:12;20.80;49.40
7476;DHT22;3779;49.216;8.650;2023-04-24T07:09:59;20.80;50.00
7476;DHT22;3779;49.216;8.650;2023-04-24T07:12:46;20.70;49.70
7476;DHT22;3779;49.216;8.650;2023-04-24T07:15:32;20.80;49.80
7476;DHT22;3779;49.216;8.650;2023-04-24T07:18:20;20.70;49.90
7476;DHT22;3779;49.216;8.650;2023-04-24T07:21:06;20.70;49.80
7476;DHT22;3779;49.216;8.650;2023-04-24T07:23:52;20.80;49.60
7476;DHT22;3779;49.216;8.650;2023-04-24T07:26:39;20.80;49.50
7476;DHT22;3779;49.216;8.650;2023-04-24T07:29:26;20.80;48.70
7476;DHT22;3779;49.216;8.650;2023-04-24T07:32:13;20.80;49.00
7476;DHT22;3779;49.216;8.650;2023-04-24T07:34:59;20.80;49.40
7476;DHT22;3779;49.216;8.650;2023-04-24T07:37:40;20.80;48.70
7476;DHT22;3779;49.216;8.650;2023-04-24T07:40:31;20.60;49.50
7476;DHT22;3779;49.216;8.650;2023-04-24T07:43:17;20.80;50.00
7476;DHT22;3779;49.216;8.650;2023-04-24T07:46:03;20.60;49.70
7476;DHT22;3779;49.216;8.650;2023-04-24T07:48:50;20.60;49.80
7476;DHT22;3779;49.216;8.650;2023-04-24T07:51:38;20.80;45.10
7476;DHT22;3779;49.216;8.650;2023-04-24T07:54:25;21.00;42.50
7476;DHT22;3779;49.216;8.650;2023-04-24T07:57:15;20.90;42.40
7476;DHT22;3779;49.216;8.650;2023-04-24T08:00:03;20.90;42.80
7476;DHT22;3779;49.216;8.650;2023-04-24T08:03:17;20.90;43.40
7476;DHT22;3779;49.216;8.650;2023-04-24T08:06:12;20.90;46.10
7476;DHT22;3779;49.216;8.650;2023-04-24T08:28:44;20.90;47.90
7476;DHT22;3779;49.216;8.650;2023-04-24T09:32:18;20.70;48.50
7476;DHT22;3779;49.216;8.650;2023-04-24T09:37:53;20.80;48.00
7476;DHT22;3779;49.216;8.650;2023-04-24T09:43:35;20.70;47.80
7476;DHT22;3779;49.216;8.650;2023-04-24T09:46:29;20.80;47.60
7476;DHT22;3779;49.216;8.650;2023-04-24T09:49:22;20.90;48.20
7476;DHT22;3779;49.216;8.650;2023-04-24T09:52:10;20.80;47.90
7476;DHT22;3779;49.216;8.650;2023-04-24T09:54:57;20.70;47.80
7476;DHT22;3779;49.216;8.650;2023-04-24T09:57:58;20.80;47.40
7476;DHT22;3779;49.216;8.650;2023-04-24T10:00:45;20.80;48.40
7476;DHT22;3779;49.216;8.650;2023-04-24T10:03:32;20.80;47.00
7476;DHT22;3779;49.216;8.650;2023-04-24T10:06:19;20.80;47.50
7476;DHT22;3779;49.216;8.650;2023-04-24T10:09:04;20.70;47.90
7476;DHT22;3779;49.216;8.650;2023-04-24T10:11:54;20.70;47.70
7476;DHT22;3779;49.216;8.650;2023-04-24T10:14:40;20.80;47.30
7476;DHT22;3779;49.216;8.650;2023-04-24T10:17:28;20.80;47.80
7476;DHT22;3779;49.216;8.650;2023-04-24T10:20:15;20.70;47.40
7476;DHT22;3779;49.216;8.650;2023-04-24T10:23:02;20.70;47.70
7476;DHT22;3779;49.216;8.650;2023-04-24T10:25:49;20.70;47.90
7476;DHT22;3779;49.216;8.650;2023-04-24T10:28:36;20.80;47.30
7476;DHT22;3779;49.216;8.650;2023-04-24T10:31:22;21.00;47.30
7476;DHT22;3779;49.216;8.650;2023-04-24T10:36:57;20.80;47.40
7476;DHT22;3779;49.216;8.650;2023-04-24T10:48:53;20.60;48.70
7476;DHT22;3779;49.216;8.650;2023-04-24T10:51:51;20.60;48.40
7476;DHT22;3779;49.216;8.650;2023-04-24T10:54:44;20.60;48.40
7476;DHT22;3779;49.216;8.650;2023-04-24T10:57:31;20.80;48.80
7476;DHT22;3779;49.216;8.650;2023-04-24T11:00:21;20.70;48.50
7476;DHT22;3779;49.216;8.650;2023-04-24T11:03:31;20.60;48.50
7476;DHT22;3779;49.216;8.650;2023-04-24T11:06:31;20.70;49.50
7476;DHT22;3779;49.216;8.650;2023-04-24T11:09:20;20.70;48.70
7476;DHT22;3779;49.216;8.650;2023-04-24T11:12:09;20.60;48.60
7476;DHT22;3779;49.216;8.650;2023-04-24T12:15:50;20.70;49.30
7476;DHT22;3779;49.216;8.650;2023-04-24T12:18:42;20.70;48.40
7476;DHT22;3779;49.216;8.650;2023-04-24T12:21:28;20.80;49.20
7476;DHT22;3779;49.216;8.650;2023-04-24T12:24:15;20.70;49.00
7476;DHT22;3779;49.216;8.650;2023-04-24T12:32:53;20.60;49.40
7476;DHT22;3779;49.216;8.650;2023-04-24T12:35:40;20.50;49.50
7476;DHT22;3779;49.216;8.650;2023-04-24T12:38:29;20.60;49.00
7476;DHT22;3779;49.216;8.650;2023-04-24T12:41:16;20.60;49.40
7476;DHT22;3779;49.216;8.650;2023-04-24T12:44:02;20.70;49.20
7476;DHT22;3779;49.216;8.650;2023-04-24T12:46:47;20.60;48.90
7476;DHT22;3779;49.216;8.650;2023-04-24T12:49:33;20.60;49.00
7476;DHT22;3779;49.216;8.650;2023-04-24T12:52:19;20.60;48.50
7476;DHT22;3779;49.216;8.650;2023-04-24T12:55:06;20.70;49.00
7476;DHT22;3779;49.216;8.650;2023-04-24T12:57:55;20.70;49.00
7476;DHT22;3779;49.216;8.650;2023-04-24T13:00:41;20.60;48.90
7476;DHT22;3779;49.216;8.650;2023-04-24T13:03:28;20.60;49.00
7476;DHT22;3779;49.216;8.650;2023-04-24T13:06:14;20.60;48.80
7476;DHT22;3779;49.216;8.650;2023-04-24T13:11:50;20.60;49.00
7476;DHT22;3779;49.216;8.650;2023-04-24T13:14:37;20.60;48.70
7476;DHT22;3779;49.216;8.650;2023-04-24T13:17:23;20.40;49.50
7476;DHT22;3779;49.216;8.650;2023-04-24T13:20:09;20.40;49.30
7476;DHT22;3779;49.216;8.650;2023-04-24T13:22:55;20.50;48.50
7476;DHT22;3779;49.216;8.650;2023-04-24T13:25:41;20.60;48.30
7476;DHT22;3779;49.216;8.650;2023-04-24T13:28:27;20.80;48.90
7476;DHT22;3779;49.216;8.650;2023-04-24T13:31:15;20.60;48.90
7476;DHT22;3779;49.216;8.650;2023-04-24T13:34:02;20.60;48.90
7476;DHT22;3779;49.216;8.650;2023-04-24T14:13:10;20.60;48.40
7476;DHT22;3779;49.216;8.650;2023-04-24T14:15:56;20.80;48.50
7476;DHT22;3779;49.216;8.650;2023-04-24T14:18:44;20.60;47.40
7476;DHT22;3779;49.216;8.650;2023-04-24T14:33:34;20.60;48.50
7476;DHT22;3779;49.216;8.650;2023-04-24T14:36:31;20.60;47.70
7476;DHT22;3779;49.216;8.650;2023-04-24T14:39:21;20.60;48.20
7476;DHT22;3779;49.216;8.650;2023-04-24T14:45:12;20.60;48.10
7476;DHT22;3779;49.216;8.650;2023-04-24T18:50:54;20.40;50.00
7476;DHT22;3779;49.216;8.650;2023-04-24T18:56:37;20.50;49.70
7476;DHT22;3779;49.216;8.650;2023-04-24T18:59:23;20.60;49.50
7476;DHT22;3779;49.216;8.650;2023-04-24T19:02:10;20.60;49.50
7476;DHT22;3779;49.216;8.650;2023-04-24T19:05:26;20.60;49.40
7476;DHT22;3779;49.216;8.650;2023-04-24T19:11:01;20.60;49.60
7476;DHT22;3779;49.216;8.650;2023-04-24T19:29:17;20.60;49.50
7476;DHT22;3779;49.216;8.650;2023-04-24T19:32:02;20.60;49.30
7476;DHT22;3779;49.216;8.650;2023-04-24T19:34:48;20.60;49.30
7476;DHT22;3779;49.216;8.650;2023-04-24T19:37:35;20.60;49.40
7476;DHT22;3779;49.216;8.650;2023-04-24T19:49:25;20.60;49.50
7476;DHT22;3779;49.216;8.650;2023-04-24T19:52:11;20.60;49.60
7476;DHT22;3779;49.216;8.650;2023-04-24T19:55:00;20.60;49.70
7476;DHT22;3779;49.216;8.650;2023-04-24T20:04:04;20.60;49.50
7476;DHT22;3779;49.216;8.650;2023-04-24T20:12:58;20.60;49.70
7476;DHT22;3779;49.216;8.650;2023-04-24T20:15:54;20.70;49.80
7476;DHT22;3779;49.216;8.650;2023-04-24T20:45:06;20.60;49.60
7476;DHT22;3779;49.216;8.650;2023-04-24T22:25:05;20.50;49.90
7476;DHT22;3779;49.216;8.650;2023-04-24T22:27:44;20.50;49.80
7476;DHT22;3779;49.216;8.650;2023-04-24T22:30:30;20.50;49.80
7476;DHT22;3779;49.216;8.650;2023-04-24T22:33:17;20.50;49.60
7476;DHT22;3779;49.216;8.650;2023-04-24T22:39:05;20.50;49.60
7476;DHT22;3779;49.216;8.650;2023-04-24T22:54:03;20.50;49.70
7476;DHT22;3779;49.216;8.650;2023-04-24T23:02:48;20.50;49.70
7476;DHT22;3779;49.216;8.650;2023-04-24T23:11:45;20.40;49.90
7476;DHT22;3779;49.216;8.650;2023-04-24T23:17:34;20.50;49.60
7476;DHT22;3779;49.216;8.650;2023-04-24T23:26:19;20.50;49.70
7476;DHT22;3779;49.216;8.650;2023-04-24T23:32:10;20.50;49.80
7476;DHT22;3779;49.216;8.650;2023-04-24T23:40:54;20.50;49.50
7476;DHT22;3779;49.216;8.650;2023-04-24T23:43:30;20.70;49.70
7476;DHT22;3779;49.216;8.650;2023-04-24T23:58:26;20.40;49.90
